Time;durP1;ratioP1;P1;durP2;ratioP2;P2;SDS_P1;SDS_P2;PMS_P1;PMS_P2;Temp;Humidity;BMP_temperature;BMP_pressure;BME280_temperature;BME280_humidity;BME280_pressure;Samples;Min_cycle;Max_cycle;Signal;HPM_P1;HPM_P2
2022/04/02 00:01:22;;;;;;;38.53;22.85;;;;;;;7.06;81.05;98712.88;5050671;28;20082;-71
2022/04/02 00:03:47;;;;;;;41.90;23.38;;;;;;;7.06;81.38;98710.25;5050776;28;20032;-71
2022/04/02 00:06:13;;;;;;;43.35;23.05;;;;;;;7.07;81.27;98708.44;5050514;28;20037;-72
2022/04/02 00:08:38;;;;;;;39.78;23.42;;;;;;;7.07;81.45;98714.47;5050762;28;20035;-71
2022/04/02 00:11:04;;;;;;;41.92;23.05;;;;;;;7.06;81.03;98722.56;5049259;28;20051;-71
2022/04/02 00:13:31;;;;;;;39.33;23.08;;;;;;;7.06;81.06;98723.34;5050969;28;20029;-69
2022/04/02 00:15:57;;;;;;;43.47;24.45;;;;;;;6.96;81.42;98713.53;5049278;28;20067;-71
2022/04/02 00:18:23;;;;;;;44.45;24.33;;;;;;;7.02;81.09;98714.41;5050216;28;20495;-70
2022/04/02 00:20:48;;;;;;;45.58;23.95;;;;;;;6.98;81.19;98719.31;5050376;28;20128;-70
2022/04/02 00:25:58;;;;;;;46.35;25.02;;;;;;;6.81;80.95;98706.28;5050253;28;20490;-72
2022/04/02 00:28:23;;;;;;;45.10;25.88;;;;;;;6.69;80.30;98691.75;5050214;28;20041;-71
2022/04/02 00:30:48;;;;;;;40.45;24.00;;;;;;;6.84;79.72;98719.94;5050330;28;20025;-72
2022/04/02 00:33:14;;;;;;;44.83;25.42;;;;;;;6.76;79.80;98713.28;5049681;28;20045;-71
2022/04/02 00:35:39;;;;;;;42.10;23.17;;;;;;;6.71;79.18;98716.63;5050405;28;20082;-71
2022/04/02 00:38:05;;;;;;;38.10;22.20;;;;;;;6.64;78.84;98705.53;5049712;28;20056;-72
2022/04/02 00:40:30;;;;;;;43.53;23.52;;;;;;;6.72;78.67;98730.50;5050213;28;20032;-71
2022/04/02 00:42:56;;;;;;;41.42;23.17;;;;;;;6.64;78.83;98728.28;5046423;28;20041;-70
2022/04/02 00:45:21;;;;;;;39.15;22.75;;;;;;;6.68;78.78;98717.13;5050262;28;20494;-70
2022/04/02 00:47:47;;;;;;;38.50;23.30;;;;;;;6.52;78.21;98708.25;5049411;28;20040;-72
2022/04/02 00:50:12;;;;;;;39.20;22.98;;;;;;;6.54;79.19;98716.66;5050146;28;20024;-72
2022/04/02 00:52:42;;;;;;;40.35;23.33;;;;;;;6.54;78.68;98721.88;5048364;28;20132;-72
2022/04/02 00:55:07;;;;;;;42.30;25.02;;;;;;;6.62;78.18;98733.75;5050086;28;20115;-72
2022/04/02 00:57:34;;;;;;;41.22;23.52;;;;;;;6.63;78.39;98727.47;5049803;28;20120;-72
2022/04/02 01:00:00;;;;;;;42.78;25.60;;;;;;;6.64;78.03;98728.28;5049589;28;20068;-72
2022/04/02 01:02:26;;;;;;;40.80;23.25;;;;;;;6.63;78.13;98719.63;5049588;28;20037;-71
2022/04/02 01:04:54;;;;;;;38.78;23.30;;;;;;;6.65;78.04;98722.81;5045963;28;20497;-72
2022/04/02 01:07:21;;;;;;;41.50;24.27;;;;;;;6.71;78.07;98731.53;5029765;28;20083;-72
2022/04/02 01:09:46;;;;;;;39.22;23.05;;;;;;;6.74;77.82;98744.13;5048754;28;20029;-72
2022/04/02 01:12:12;;;;;;;39.30;24.45;;;;;;;6.73;77.67;98748.56;5049748;28;20513;-72
2022/04/02 01:14:38;;;;;;;38.92;23.02;;;;;;;6.66;77.52;98745.31;5049465;28;20075;-71
2022/04/02 01:17:05;;;;;;;43.05;25.08;;;;;;;6.56;77.54;98740.75;5049699;28;20037;-71
2022/04/02 01:19:32;;;;;;;40.15;23.58;;;;;;;6.50;77.65;98733.06;5049485;28;20029;-71
2022/04/02 01:21:57;;;;;;;38.95;23.58;;;;;;;6.58;77.54;98756.19;5049545;28;20041;-72
2022/04/02 01:24:23;;;;;;;39.03;22.88;;;;;;;6.50;77.48;98741.69;5047897;28;20450;-71
2022/04/02 01:26:48;;;;;;;41.70;24.88;;;;;;;6.46;77.53;98751.03;5049471;28;20041;-72
2022/04/02 01:29:13;;;;;;;38.40;23.90;;;;;;;6.36;77.20;98746.44;5049359;28;20475;-72
2022/04/02 01:31:44;;;;;;;41.05;24.75;;;;;;;6.47;77.80;98760.47;5049599;28;20040;-71
2022/04/02 01:34:09;;;;;;;39.60;22.92;;;;;;;6.39;77.25;98747.78;5048991;28;20091;-71
2022/04/02 01:36:35;;;;;;;40.45;24.63;;;;;;;6.43;77.32;98758.56;5049681;28;20037;-71
2022/04/02 01:39:01;;;;;;;42.65;25.35;;;;;;;6.27;77.74;98747.84;5049054;28;20112;-72
2022/04/02 01:41:26;;;;;;;44.30;24.13;;;;;;;6.23;77.34;98741.53;5049612;28;20044;-72
2022/04/02 01:43:52;;;;;;;42.40;25.73;;;;;;;6.17;77.73;98752.94;5048717;28;20578;-70
2022/04/02 01:46:17;;;;;;;41.50;24.23;;;;;;;6.27;77.93;98770.59;5047873;28;20060;-71
2022/04/02 01:48:43;;;;;;;40.83;24.10;;;;;;;6.26;77.93;98761.97;5047444;28;20036;-71
2022/04/02 01:51:09;;;;;;;40.25;24.40;;;;;;;6.24;78.06;98755.38;5049459;28;20033;-71
2022/04/02 01:53:35;;;;;;;43.13;24.95;;;;;;;6.23;77.50;98767.69;5049612;28;20068;-71
2022/04/02 01:56:00;;;;;;;44.67;24.95;;;;;;;6.09;77.76;98756.72;5049102;28;20071;-72
2022/04/02 01:58:26;;;;;;;41.33;24.98;;;;;;;6.16;77.96;98778.28;5049207;28;20037;-71
2022/04/02 02:00:51;;;;;;;42.30;25.88;;;;;;;6.18;77.72;98768.38;5048664;28;20036;-71
2022/04/02 02:03:17;;;;;;;46.53;26.48;;;;;;;6.12;77.75;98750.22;5049269;28;20043;-72
2022/04/02 02:05:43;;;;;;;45.13;25.23;;;;;;;5.93;77.33;98732.13;5037783;28;20041;-70
2022/04/02 02:08:09;;;;;;;42.35;25.13;;;;;;;6.12;77.35;98756.25;5032350;28;20048;-71
2022/04/02 02:10:34;;;;;;;42.08;24.73;;;;;;;6.12;77.24;98760.69;5047694;28;20039;-70
2022/04/02 02:13:00;;;;;;;42.67;25.20;;;;;;;6.09;77.08;98769.00;5049148;28;20029;-68
2022/04/02 02:15:27;;;;;;;44.95;25.38;;;;;;;6.17;77.38;98766.78;5047465;28;20054;-71
2022/04/02 02:17:53;;;;;;;46.15;26.70;;;;;;;6.14;77.15;98758.63;5049123;28;20057;-71
2022/04/02 02:20:20;;;;;;;44.50;25.67;;;;;;;6.20;77.14;98768.13;5051157;28;20051;-71
2022/04/02 02:22:48;;;;;;;41.70;24.85;;;;;;;5.96;76.93;98729.09;5052794;28;20047;-71
2022/04/02 02:25:15;;;;;;;45.60;26.75;;;;;;;6.23;76.47;98766.88;5031324;28;20398;-72
2022/04/02 02:27:42;;;;;;;45.20;26.63;;;;;;;6.24;77.24;98761.41;5051324;28;20162;-71
2022/04/02 02:30:09;;;;;;;44.83;25.85;;;;;;;6.27;76.90;98774.00;5051204;28;20029;-71
2022/04/02 02:32:36;;;;;;;44.25;26.08;;;;;;;6.21;76.73;98768.94;5047809;28;20037;-71
2022/04/02 02:38:09;;;;;;;46.10;26.50;;;;;;;6.29;76.44;98776.38;5052654;28;20033;-70
2022/04/02 02:40:36;;;;;;;51.65;27.27;;;;;;;6.35;77.08;98791.13;5052120;28;20086;-71
2022/04/02 02:43:02;;;;;;;41.92;25.00;;;;;;;6.33;76.58;98782.72;5052481;28;20432;-71
2022/04/02 02:45:28;;;;;;;45.97;26.60;;;;;;;6.28;76.77;98770.38;5051971;28;20431;-72
2022/04/02 02:47:54;;;;;;;46.90;26.02;;;;;;;6.43;76.58;98785.50;5052315;28;20119;-71
2022/04/02 02:50:21;;;;;;;45.58;26.50;;;;;;;6.37;76.46;98768.16;5051887;28;20037;-71
2022/04/02 02:52:46;;;;;;;46.20;27.10;;;;;;;6.43;76.68;98777.66;5052378;28;20488;-71
2022/04/02 02:55:12;;;;;;;48.08;27.02;;;;;;;6.47;76.27;98778.78;5051594;28;20044;-72
2022/04/02 02:57:42;;;;;;;41.60;25.75;;;;;;;6.56;76.28;98782.59;5052313;28;20028;-71
2022/04/02 03:00:09;;;;;;;45.65;26.02;;;;;;;6.61;76.09;98792.34;5052058;28;20037;-71
2022/04/02 03:02:37;;;;;;;44.75;26.58;;;;;;;6.61;76.18;98784.50;5057580;28;20033;-71
2022/04/02 03:05:10;;;;;;;44.58;25.27;;;;;;;6.67;75.87;98796.59;5058925;28;20114;-71
2022/04/02 03:07:51;;;;;;;43.35;25.67;;;;;;;6.72;76.23;98801.91;5057387;28;20029;-71
2022/04/02 03:10:27;;;;;;;44.17;25.42;;;;;;;6.77;76.17;98796.75;5058992;28;20107;-71
2022/04/02 03:12:54;;;;;;;42.60;24.98;;;;;;;6.77;76.37;98798.56;5056755;28;20036;-70
2022/04/02 03:15:21;;;;;;;41.25;25.02;;;;;;;6.82;76.10;98804.69;5052561;28;20826;-70
2022/04/02 03:17:48;;;;;;;42.88;24.20;;;;;;;6.85;75.96;98806.03;5051401;28;20126;-71
2022/04/02 03:20:15;;;;;;;41.47;24.17;;;;;;;6.88;75.77;98807.38;5051770;28;20148;-73
2022/04/02 03:22:43;;;;;;;42.55;24.77;;;;;;;6.91;75.80;98810.28;5051451;28;20048;-70
2022/04/02 03:25:10;;;;;;;41.45;24.02;;;;;;;6.93;75.92;98802.22;5051635;28;20041;-71
2022/04/02 03:27:37;;;;;;;42.17;24.42;;;;;;;6.93;75.65;98797.78;5051061;28;20148;-71
2022/04/02 03:30:05;;;;;;;42.35;24.20;;;;;;;6.92;75.60;98793.56;5051402;28;20037;-71
2022/04/02 03:32:31;;;;;;;45.13;25.10;;;;;;;6.94;75.69;98794.13;5050858;28;20411;-70
2022/04/02 03:34:57;;;;;;;41.08;24.60;;;;;;;6.98;75.32;98804.91;5051452;28;20028;-71
2022/04/02 03:37:24;;;;;;;43.20;24.92;;;;;;;6.96;75.61;98807.75;5050977;28;20052;-72
2022/04/02 03:39:50;;;;;;;43.70;25.58;;;;;;;6.92;75.76;98793.56;5040110;28;20391;-72
2022/04/02 03:42:16;;;;;;;43.15;25.27;;;;;;;6.89;75.79;98811.56;5048436;28;20113;-71
2022/04/02 03:44:41;;;;;;;44.83;26.33;;;;;;;6.82;75.85;98804.69;5051427;28;20546;-70
2022/04/02 03:47:09;;;;;;;44.80;26.10;;;;;;;6.80;75.99;98805.97;5049180;28;20044;-71
2022/04/02 03:49:39;;;;;;;43.35;25.38;;;;;;;6.85;75.92;98815.69;5057658;28;20111;-70
2022/04/02 03:52:06;;;;;;;45.35;26.77;;;;;;;6.66;75.96;98789.78;5063727;28;20033;-70
2022/04/02 03:54:32;;;;;;;43.05;25.58;;;;;;;6.74;76.39;98805.06;5051327;28;20032;-70
2022/04/02 03:56:58;;;;;;;45.63;26.70;;;;;;;6.92;76.17;98839.88;5050489;28;20672;-71
2022/04/02 03:59:24;;;;;;;42.28;25.27;;;;;;;6.86;75.88;98825.13;5050642;28;20049;-70
2022/04/02 04:01:49;;;;;;;43.75;25.33;;;;;;;6.92;75.98;98834.63;5050874;28;20459;-70
2022/04/02 04:04:15;;;;;;;41.58;25.13;;;;;;;6.93;76.03;98844.88;5050674;28;20664;-70
2022/04/02 04:06:41;;;;;;;46.15;26.88;;;;;;;6.84;76.39;98827.97;5050235;28;20526;-71
2022/04/02 04:09:06;;;;;;;40.72;23.92;;;;;;;6.88;76.38;98842.19;5050508;28;20501;-71
2022/04/02 04:11:32;;;;;;;41.58;24.45;;;;;;;6.86;76.31;98844.25;5050990;28;20031;-70
2022/04/02 04:13:58;;;;;;;42.92;25.67;;;;;;;6.91;76.75;98859.22;5050318;28;20064;-70
2022/04/02 04:16:23;;;;;;;46.17;26.63;;;;;;;6.86;76.77;98853.91;5050784;28;20139;-73
2022/04/02 04:18:49;;;;;;;46.83;25.98;;;;;;;6.87;76.43;98851.06;5048678;28;20060;-71
2022/04/02 04:21:14;;;;;;;49.22;28.17;;;;;;;6.76;76.49;98844.88;5050808;28;20127;-70
2022/04/02 04:23:41;;;;;;;47.47;27.83;;;;;;;6.76;76.97;98865.00;5050406;28;20033;-73
2022/04/02 04:26:06;;;;;;;50.00;28.58;;;;;;;6.66;77.63;98862.25;5050723;28;20103;-72
2022/04/02 04:28:32;;;;;;;50.55;28.80;;;;;;;6.44;77.94;98843.81;5048715;28;20049;-74
2022/04/02 04:30:57;;;;;;;48.55;27.63;;;;;;;6.47;78.72;98862.44;5050560;28;20032;-71
2022/04/02 04:33:23;;;;;;;53.00;29.95;;;;;;;6.27;78.74;98859.47;5050042;28;20036;-72
2022/04/02 04:35:48;;;;;;;54.25;30.23;;;;;;;6.15;80.25;98864.75;5050360;28;20029;-72
2022/04/02 04:38:13;;;;;;;50.72;29.65;;;;;;;6.07;79.83;98860.69;5054417;28;20481;-73
2022/04/02 04:40:39;;;;;;;50.80;28.50;;;;;;;5.93;80.65;98852.28;5070471;28;20256;-75
2022/04/02 04:43:04;;;;;;;52.75;29.88;;;;;;;5.89;80.71;98855.59;5053635;28;20041;-73
2022/04/02 04:45:30;;;;;;;54.28;29.15;;;;;;;5.85;81.17;98860.50;5048549;28;20071;-74
2022/04/02 04:47:55;;;;;;;50.58;28.98;;;;;;;5.79;81.57;98853.59;5049871;28;20040;-73
2022/04/02 04:50:21;;;;;;;52.45;29.65;;;;;;;5.70;82.02;98857.59;5050294;28;20036;-73
2022/04/02 04:52:46;;;;;;;57.85;30.98;;;;;;;5.70;81.82;98865.44;5048565;28;20032;-73
2022/04/02 04:55:12;;;;;;;55.50;30.02;;;;;;;5.52;82.36;98871.59;5049810;28;20033;-73
2022/04/02 04:57:37;;;;;;;55.53;30.58;;;;;;;5.42;82.70;98876.59;5050020;28;20042;-72
2022/04/02 05:00:05;;;;;;;53.90;30.27;;;;;;;5.42;83.31;98874.00;5049576;28;20455;-72
2022/04/02 05:02:31;;;;;;;56.92;31.15;;;;;;;5.29;84.10;98867.16;5050565;28;20057;-72
2022/04/02 05:04:57;;;;;;;56.42;30.73;;;;;;;5.36;84.51;98878.28;5049944;28;20536;-71
2022/04/02 05:07:23;;;;;;;57.50;31.90;;;;;;;5.43;84.87;98871.13;5049165;28;20029;-72
2022/04/02 05:09:49;;;;;;;58.83;31.15;;;;;;;5.33;84.44;98878.75;5050191;28;20033;-74
2022/04/02 05:12:15;;;;;;;57.05;30.10;;;;;;;5.38;84.71;98886.69;5047946;28;20040;-74
2022/04/02 05:14:41;;;;;;;56.20;30.55;;;;;;;5.28;85.61;98878.63;5048597;28;20044;-75
2022/04/02 05:17:06;;;;;;;60.80;31.92;;;;;;;5.18;86.02;98897.47;5048257;28;20103;-74
2022/04/02 05:19:32;;;;;;;61.50;33.53;;;;;;;5.12;85.85;98898.38;5047901;28;20052;-74
2022/04/02 05:21:57;;;;;;;61.40;31.50;;;;;;;5.10;85.68;98890.78;5049762;28;20478;-74
2022/04/02 05:24:23;;;;;;;62.28;32.35;;;;;;;4.90;84.49;98883.25;5047988;28;20037;-73
2022/04/02 05:26:49;;;;;;;58.47;31.77;;;;;;;4.78;84.96;98885.06;5049634;28;20040;-73
2022/04/02 05:29:14;;;;;;;58.83;31.17;;;;;;;4.79;85.53;98894.50;5049430;28;20159;-74
2022/04/02 05:31:41;;;;;;;56.20;30.67;;;;;;;4.69;85.77;98875.97;5049564;28;20040;-73
2022/04/02 05:34:08;;;;;;;62.40;33.20;;;;;;;4.68;86.40;98887.44;5049090;28;20032;-74
2022/04/02 05:36:33;;;;;;;61.95;32.50;;;;;;;4.60;87.09;98887.75;5049750;28;20071;-75
2022/04/02 05:38:59;;;;;;;65.97;33.00;;;;;;;4.44;86.39;98865.72;5049601;28;20061;-74
2022/04/02 05:41:25;;;;;;;66.40;32.85;;;;;;;4.64;86.33;98900.09;5044633;28;20045;-74
2022/04/02 05:43:50;;;;;;;60.75;31.80;;;;;;;4.61;85.97;98882.31;5062000;28;20499;-74
2022/04/02 05:46:16;;;;;;;61.13;32.55;;;;;;;4.67;87.13;98897.06;5048032;28;20037;-74
2022/04/02 05:48:42;;;;;;;66.55;33.95;;;;;;;4.74;86.84;98909.19;5048606;28;20677;-73
2022/04/02 05:51:08;;;;;;;67.32;35.28;;;;;;;4.73;87.19;98894.59;5046776;28;20072;-73
2022/04/02 05:53:33;;;;;;;65.53;33.45;;;;;;;4.82;86.69;98908.88;5049963;28;20028;-72
2022/04/02 05:55:59;;;;;;;62.17;33.65;;;;;;;4.69;86.60;98897.66;5052573;28;20475;-73
2022/04/02 05:58:25;;;;;;;65.30;33.97;;;;;;;4.72;86.79;98914.66;5051715;28;20452;-72
2022/04/02 06:00:51;;;;;;;61.92;32.45;;;;;;;4.67;87.35;98912.72;5052942;28;20040;-72
2022/04/02 06:03:19;;;;;;;63.75;33.45;;;;;;;4.66;88.10;98910.31;5046913;28;20033;-73
2022/04/02 06:05:45;;;;;;;65.10;32.75;;;;;;;4.69;88.37;98905.47;5052942;28;20033;-75
2022/04/02 06:08:11;;;;;;;66.95;34.30;;;;;;;4.76;87.77;98909.78;5053299;28;20108;-75
2022/04/02 06:10:36;;;;;;;69.72;35.70;;;;;;;4.65;87.75;98900.91;5052956;28;20025;-73
2022/04/02 06:13:02;;;;;;;66.15;33.95;;;;;;;4.46;85.24;98895.75;5050469;28;20116;-76
2022/04/02 06:15:27;;;;;;;65.90;33.53;;;;;;;4.45;85.06;98895.97;5051758;28;20124;-74
2022/04/02 06:17:53;;;;;;;63.90;32.20;;;;;;;4.42;85.04;98905.03;5060189;28;20426;-74
2022/04/02 06:20:19;;;;;;;68.97;32.75;;;;;;;4.43;85.68;98911.03;5054032;28;20120;-74
2022/04/02 06:22:44;;;;;;;68.78;34.25;;;;;;;4.44;85.19;98907.41;5059934;28;20067;-74
2022/04/02 06:25:10;;;;;;;64.95;32.83;;;;;;;4.46;85.63;98903.56;5056156;28;20038;-73
2022/04/02 06:27:43;;;;;;;70.53;34.47;;;;;;;4.48;85.79;98911.97;5061622;28;20025;-73
2022/04/02 06:30:11;;;;;;;71.18;33.97;;;;;;;4.53;86.06;98907.91;5060483;28;20033;-72
2022/04/02 06:32:36;;;;;;;67.78;34.95;;;;;;;4.56;85.62;98931.72;5051814;28;20607;-72
2022/04/02 06:35:01;;;;;;;65.93;33.70;;;;;;;4.54;85.79;98927.72;5052805;28;20136;-73
2022/04/02 06:37:32;;;;;;;70.78;34.13;;;;;;;4.43;86.18;98926.66;5050860;28;20032;-73
2022/04/02 06:39:58;;;;;;;62.92;32.20;;;;;;;4.25;86.37;98917.09;5044434;28;20044;-74
2022/04/02 06:42:24;;;;;;;67.68;34.40;;;;;;;4.38;86.32;98923.94;5045497;28;20037;-72
2022/04/02 06:44:49;;;;;;;63.72;32.53;;;;;;;4.34;86.58;98907.16;5034106;28;20048;-72
2022/04/02 06:47:14;;;;;;;64.97;33.88;;;;;;;4.35;85.99;98914.75;5044551;28;20530;-71
2022/04/02 06:49:40;;;;;;;70.60;34.55;;;;;;;4.52;86.32;98937.59;5053329;28;20040;-72
2022/04/02 06:52:06;;;;;;;67.85;33.75;;;;;;;4.41;86.44;98920.91;5052370;28;20087;-73
2022/04/02 06:54:32;;;;;;;437.13;113.82;;;;;;;4.78;87.23;98932.00;5038389;28;20483;-71
2022/04/02 06:56:57;;;;;;;129.27;49.20;;;;;;;5.16;86.10;98946.47;5036717;28;20040;-71
2022/04/02 06:59:23;;;;;;;83.20;39.65;;;;;;;4.87;85.32;98933.28;5050527;28;20060;-74
2022/04/02 07:01:48;;;;;;;68.82;36.15;;;;;;;4.80;85.75;98935.19;5052186;28;20043;-72
2022/04/02 07:04:14;;;;;;;68.78;33.65;;;;;;;4.72;85.91;98947.72;5052505;28;20152;-71
2022/04/02 07:06:44;;;;;;;69.68;34.95;;;;;;;4.60;86.70;98932.06;5051688;28;20183;-71
2022/04/02 07:09:10;;;;;;;66.53;33.95;;;;;;;4.65;87.52;98937.41;5052508;28;20036;-72
2022/04/02 07:11:36;;;;;;;67.40;34.78;;;;;;;4.64;87.01;98933.19;5051906;28;20024;-71
2022/04/02 07:14:01;;;;;;;68.57;35.47;;;;;;;4.56;86.45;98930.91;5052280;28;20040;-73
2022/04/02 07:16:28;;;;;;;69.75;36.03;;;;;;;4.67;86.39;98951.03;5052314;28;20029;-71
2022/04/02 07:18:55;;;;;;;67.85;35.10;;;;;;;4.52;86.84;98927.16;5051771;28;20045;-72
2022/04/02 07:21:26;;;;;;;71.90;35.28;;;;;;;4.42;86.17;98920.66;5052413;28;20036;-72
2022/04/02 07:23:53;;;;;;;62.60;33.30;;;;;;;4.64;85.92;98938.41;5051884;28;20033;-72
2022/04/02 07:26:19;;;;;;;65.13;33.85;;;;;;;4.70;85.45;98963.63;5051996;28;20036;-72
2022/04/02 07:28:45;;;;;;;70.97;37.05;;;;;;;4.62;85.63;98958.69;5050973;28;20044;-71
2022/04/02 07:31:10;;;;;;;73.80;37.50;;;;;;;4.68;86.49;98966.44;5041154;28;20113;-73
2022/04/02 07:33:36;;;;;;;79.53;38.10;;;;;;;4.58;85.15;98960.19;5054098;28;20063;-72
2022/04/02 07:36:09;;;;;;;70.72;35.83;;;;;;;4.67;85.50;98969.28;5037012;28;20063;-72
2022/04/02 07:38:40;;;;;;;68.38;35.38;;;;;;;4.67;85.54;98969.28;5051349;28;20037;-71
2022/04/02 07:41:29;;;;;;;74.75;36.75;;;;;;;4.72;85.09;98982.44;5050620;28;20052;-71
2022/04/02 07:44:01;;;;;;;72.38;37.20;;;;;;;4.72;85.27;98979.84;5045894;28;20073;-71
2022/04/02 07:46:30;;;;;;;71.63;35.97;;;;;;;4.71;85.37;98980.06;5049338;28;20159;-71
2022/04/02 07:48:57;;;;;;;72.40;36.55;;;;;;;4.70;85.22;98984.47;5047154;28;20037;-71
2022/04/02 07:51:25;;;;;;;66.90;35.20;;;;;;;4.79;85.50;98998.81;5047227;28;20123;-72
2022/04/02 07:53:54;;;;;;;75.40;35.85;;;;;;;4.71;85.93;98975.63;5049273;28;20128;-71
2022/04/02 07:56:27;;;;;;;74.68;35.85;;;;;;;4.80;85.26;98982.13;5046969;28;20033;-71
2022/04/02 07:58:57;;;;;;;66.40;33.85;;;;;;;4.96;85.13;99006.00;5041653;28;20453;-71
2022/04/02 08:01:24;;;;;;;70.57;35.80;;;;;;;4.94;84.72;99000.22;5051812;28;20155;-72
2022/04/02 08:03:51;;;;;;;67.30;33.72;;;;;;;5.00;84.77;99010.53;5050731;28;20065;-72
2022/04/02 08:06:19;;;;;;;66.03;33.22;;;;;;;4.75;83.94;98968.97;5051286;28;20064;-71
2022/04/02 08:08:45;;;;;;;70.32;35.00;;;;;;;5.03;84.27;99014.53;5050015;28;20434;-72
2022/04/02 08:11:11;;;;;;;64.00;33.72;;;;;;;5.00;82.44;99007.91;5050160;28;20062;-71
2022/04/02 08:13:41;;;;;;;64.10;33.15;;;;;;;4.98;83.01;99007.38;5050432;28;20032;-71
2022/04/02 08:16:10;;;;;;;65.75;33.03;;;;;;;5.07;83.11;99015.66;5048967;28;20590;-71
2022/04/02 08:18:41;;;;;;;63.92;33.95;;;;;;;5.04;83.30;99005.69;5049456;28;20192;-71
2022/04/02 08:21:08;;;;;;;65.05;33.45;;;;;;;4.97;83.27;98989.31;5042630;28;20060;-71
2022/04/02 08:23:33;;;;;;;64.13;33.30;;;;;;;5.01;83.36;98988.66;5048807;28;20040;-74
2022/04/02 08:26:11;;;;;;;66.90;34.80;;;;;;;5.16;83.63;99000.50;5045682;28;20451;-73
2022/04/02 08:28:48;;;;;;;64.22;34.35;;;;;;;5.21;82.79;98998.00;5049972;28;20067;-71
2022/04/02 08:31:48;;;;;;;66.05;33.50;;;;;;;5.25;83.50;98988.72;5050280;28;20044;-72
2022/04/02 08:34:26;;;;;;;66.78;34.67;;;;;;;5.27;84.16;98992.69;5047288;28;20043;-71
2022/04/02 08:37:12;;;;;;;73.75;35.20;;;;;;;5.16;83.93;98969.97;5048456;28;20115;-72
2022/04/02 08:39:46;;;;;;;66.20;34.63;;;;;;;5.22;83.92;98978.69;5049093;28;20087;-71
2022/04/02 08:42:42;;;;;;;65.72;33.60;;;;;;;5.34;83.25;98987.38;5049829;28;20035;-70
2022/04/02 08:45:09;;;;;;;65.78;34.78;;;;;;;5.42;83.43;98986.25;5049786;28;20056;-70
2022/04/02 08:47:53;;;;;;;67.25;34.38;;;;;;;5.42;83.20;98992.25;5049556;28;20052;-72
2022/04/02 08:50:44;;;;;;;71.65;35.53;;;;;;;5.41;83.76;98982.03;5049742;28;20603;-70
2022/04/02 08:53:56;;;;;;;73.10;36.35;;;;;;;5.47;83.54;98989.75;5042962;28;20033;-70
2022/04/02 08:56:25;;;;;;;73.07;35.30;;;;;;;5.56;84.31;98992.03;5035367;28;20096;-72
2022/04/02 08:59:05;;;;;;;76.13;38.17;;;;;;;5.54;84.37;98987.81;5038468;28;20083;-72
2022/04/02 09:01:39;;;;;;;72.97;37.17;;;;;;;5.69;84.33;99002.25;5017053;28;20417;-71
2022/04/02 09:04:37;;;;;;;73.32;36.80;;;;;;;5.77;84.53;99022.81;5024563;28;20125;-72
2022/04/02 09:07:05;;;;;;;70.05;35.97;;;;;;;5.83;84.60;99021.91;5023100;28;20124;-72
2022/04/02 09:10:04;;;;;;;70.68;36.40;;;;;;;5.74;84.36;98999.75;5038633;28;20112;-72
2022/04/02 09:13:18;;;;;;;74.30;37.55;;;;;;;5.91;83.51;99010.31;5039288;28;20033;-71
2022/04/02 09:16:01;;;;;;;73.85;37.00;;;;;;;6.01;84.08;99013.19;5023653;28;20109;-71
2022/04/02 09:18:47;;;;;;;70.25;36.08;;;;;;;6.07;83.91;99009.63;5020845;28;20129;-71
2022/04/02 09:21:57;;;;;;;77.05;38.20;;;;;;;6.02;83.09;99000.91;5020437;28;20042;-71
2022/04/02 09:24:37;;;;;;;70.43;36.35;;;;;;;6.08;83.30;98997.34;5007902;28;20042;-72
2022/04/02 09:27:39;;;;;;;71.15;37.15;;;;;;;6.16;83.12;99003.03;5026557;28;20045;-72
2022/04/02 09:30:26;;;;;;;70.10;36.00;;;;;;;6.21;83.15;99012.03;5040529;28;20037;-72
2022/04/02 09:33:13;;;;;;;72.43;37.53;;;;;;;6.26;82.61;99017.34;5053545;28;20032;-72
2022/04/02 09:36:10;;;;;;;74.32;37.58;;;;;;;6.25;82.48;99021.78;5053636;28;20094;-72
2022/04/02 09:38:45;;;;;;;75.68;39.35;;;;;;;6.35;82.92;99021.19;5032248;28;20554;-72
2022/04/02 09:41:16;;;;;;;78.30;40.90;;;;;;;6.45;82.82;99028.44;5053440;28;20071;-73
2022/04/02 09:43:55;;;;;;;83.22;40.58;;;;;;;6.42;82.74;99008.78;5050691;28;20029;-72
2022/04/02 09:46:52;;;;;;;83.55;41.28;;;;;;;6.63;82.54;99027.47;5053305;28;20083;-72
2022/04/02 09:49:45;;;;;;;86.25;42.03;;;;;;;6.66;81.97;99030.44;5052280;28;20444;-72
2022/04/02 09:52:20;;;;;;;85.93;44.08;;;;;;;6.69;82.50;99021.31;5053073;28;20112;-71
2022/04/02 09:54:51;;;;;;;80.93;42.13;;;;;;;6.70;81.93;99007.22;5053363;28;20128;-71
2022/04/02 09:57:34;;;;;;;75.55;39.15;;;;;;;6.75;81.86;99015.16;5051314;28;20037;-71
2022/04/02 10:00:06;;;;;;;85.95;42.42;;;;;;;6.91;81.67;99040.56;5052938;28;20696;-71
2022/04/02 10:02:46;;;;;;;84.93;41.53;;;;;;;6.90;81.73;99020.66;5052768;28;20040;-71
2022/04/02 10:05:15;;;;;;;88.07;43.20;;;;;;;6.91;81.52;99016.22;5053283;28;20037;-71
2022/04/02 10:08:02;;;;;;;86.03;43.38;;;;;;;6.78;81.25;98989.31;5052853;28;20179;-72
2022/04/02 10:10:29;;;;;;;86.75;42.80;;;;;;;7.07;81.11;99030.38;5050180;28;20119;-71
2022/04/02 10:12:56;;;;;;;84.65;43.92;;;;;;;7.09;81.06;99025.69;5049408;28;20079;-72
2022/04/02 10:15:25;;;;;;;91.85;44.15;;;;;;;7.11;80.83;99018.41;5052962;28;20036;-70
2022/04/02 10:17:53;;;;;;;94.18;45.25;;;;;;;7.21;80.71;99031.69;5052590;28;20035;-71
2022/04/02 10:20:21;;;;;;;90.88;44.88;;;;;;;7.20;80.55;99024.84;5051398;28;20033;-71
2022/04/02 10:22:55;;;;;;;92.22;45.42;;;;;;;7.32;80.41;99041.28;5051241;28;20573;-70
2022/04/02 10:25:27;;;;;;;90.93;44.95;;;;;;;7.33;80.05;99029.78;5052714;28;20062;-70
2022/04/02 10:27:54;;;;;;;91.25;45.53;;;;;;;7.36;79.91;99021.44;5046382;28;20044;-70
2022/04/02 10:30:20;;;;;;;84.20;42.30;;;;;;;7.43;80.00;99026.53;5051198;28;20040;-71
2022/04/02 10:32:48;;;;;;;88.85;45.20;;;;;;;7.48;79.72;99024.00;5034090;28;20037;-71
2022/04/02 10:35:14;;;;;;;87.03;44.50;;;;;;;7.41;79.51;99005.03;5052652;28;20044;-71
2022/04/02 10:37:41;;;;;;;83.70;41.88;;;;;;;7.58;78.86;99015.50;5052403;28;20040;-70
2022/04/02 10:40:12;;;;;;;88.30;45.05;;;;;;;7.58;79.66;99002.41;5050939;28;20127;-71
2022/04/02 10:42:45;;;;;;;92.97;46.65;;;;;;;7.67;79.36;99000.97;5051023;28;20045;-70
2022/04/02 10:45:12;;;;;;;85.30;44.55;;;;;;;7.75;79.05;98997.94;5052610;28;20032;-73
2022/04/02 10:47:48;;;;;;;88.28;43.42;;;;;;;7.85;78.58;99013.81;5052142;28;20044;-72
2022/04/02 10:50:18;;;;;;;87.88;44.65;;;;;;;7.86;77.95;99019.84;5050784;28;20497;-72
2022/04/02 10:52:47;;;;;;;86.55;45.15;;;;;;;7.95;78.18;99026.25;5039564;28;20070;-72
2022/04/02 10:55:15;;;;;;;91.90;45.88;;;;;;;7.96;78.71;99014.72;5052331;28;20116;-72
2022/04/02 10:57:41;;;;;;;90.97;46.58;;;;;;;8.10;78.77;99020.44;5051964;28;20044;-71
2022/04/02 11:00:09;;;;;;;87.13;43.83;;;;;;;8.18;78.67;99016.59;5051598;28;20044;-73
2022/04/02 11:02:46;;;;;;;83.85;43.15;;;;;;;8.21;78.46;99022.16;5037952;28;20141;-71
2022/04/02 11:05:14;;;;;;;90.22;44.22;;;;;;;8.29;78.06;99023.56;5035432;28;20380;-71
2022/04/02 11:07:42;;;;;;;81.75;42.28;;;;;;;8.32;77.88;99015.19;5044282;28;20060;-70
2022/04/02 11:10:13;;;;;;;85.10;43.35;;;;;;;8.42;77.85;99023.22;5050277;28;20040;-71
2022/04/02 11:12:41;;;;;;;74.35;39.92;;;;;;;8.51;77.80;99028.81;5047629;28;20033;-71
2022/04/02 11:15:14;;;;;;;75.70;38.80;;;;;;;8.48;75.81;99010.97;5052004;28;20095;-71
2022/04/02 11:17:45;;;;;;;72.88;38.40;;;;;;;8.50;75.91;99007.06;5051715;28;20526;-70
2022/04/02 11:20:22;;;;;;;68.75;36.10;;;;;;;8.38;76.24;98966.19;5051206;28;20052;-72
2022/04/02 11:23:02;;;;;;;67.82;35.28;;;;;;;8.71;76.49;99010.69;5031644;28;20056;-72
2022/04/02 11:25:36;;;;;;;67.97;37.90;;;;;;;8.82;75.46;99011.59;5045205;28;20037;-71
2022/04/02 11:28:05;;;;;;;71.90;37.50;;;;;;;8.90;75.42;99016.38;5047930;28;20029;-70
2022/04/02 11:30:47;;;;;;;69.20;36.17;;;;;;;8.95;75.09;99005.13;5051615;28;20036;-72
2022/04/02 11:33:21;;;;;;;59.80;32.47;;;;;;;8.93;73.05;99005.41;5050841;28;20041;-72
2022/04/02 11:35:48;;;;;;;65.60;34.83;;;;;;;9.07;74.64;99008.41;5051705;28;20041;-71
2022/04/02 11:38:23;;;;;;;64.88;33.47;;;;;;;9.11;73.94;99013.97;5050620;28;20083;-71
2022/04/02 11:41:04;;;;;;;63.70;35.40;;;;;;;9.21;74.68;99008.00;5051501;28;20044;-71